Draperstown, United Kingdom
Current Conditions -  °F | °C
As of 9:50 PM on Sunday 19 Oct 2014 (Local Time) from EGAE Reporting Station
Clear Clear  
Wind Chill: 52°   Ceiling: Unl
Heat Index: 52°   Visibility: 6mi
Dew Point: 48°   Wind: 15mph
Humidity: 88%   Direction: 230°SW
Pressure: 29.74"   Gusts: NA
Location:  54.8°N, 6.77°W
Report Text: EGAE 192050Z 23013KT CAVOK 11/09 Q1007
Loading
Personal Weather Stations






























Interactive Weather Map
Tropical Storm Tracking
New forecast layout! Learn more

10-Day Weather Forecast

Advertisements
Track Severe Weather on mobile